sensor_id;sensor_type;location;lat;lon;timestamp;temperature;humidity
39919;DHT22;25589;51.552;13.424;2024-03-23T00:52:46;12.10;99.90
39919;DHT22;25589;51.552;13.424;2024-03-23T00:55:12;12.10;99.90
39919;DHT22;25589;51.552;13.424;2024-03-23T00:57:38;12.10;99.90
39919;DHT22;25589;51.552;13.424;2024-03-23T01:02:32;12.10;99.90
39919;DHT22;25589;51.552;13.424;2024-03-23T01:07:23;12.10;99.90
39919;DHT22;25589;51.552;13.424;2024-03-23T01:09:49;12.10;99.90
39919;DHT22;25589;51.552;13.424;2024-03-23T01:12:14;12.10;99.90
39919;DHT22;25589;51.552;13.424;2024-03-23T01:14:40;12.20;99.90
39919;DHT22;25589;51.552;13.424;2024-03-23T01:17:06;12.30;99.90
39919;DHT22;25589;51.552;13.424;2024-03-23T01:19:31;12.30;99.90
39919;DHT22;25589;51.552;13.424;2024-03-23T01:21:57;12.60;99.90
39919;DHT22;25589;51.552;13.424;2024-03-23T01:24:22;12.80;99.90
39919;DHT22;25589;51.552;13.424;2024-03-23T01:26:48;12.30;99.90
39919;DHT22;25589;51.552;13.424;2024-03-23T01:29:13;12.20;99.90
39919;DHT22;25589;51.552;13.424;2024-03-23T01:31:39;12.30;99.90
39919;DHT22;25589;51.552;13.424;2024-03-23T01:34:05;12.20;99.90
39919;DHT22;25589;51.552;13.424;2024-03-23T01:36:31;13.20;99.90
39919;DHT22;25589;51.552;13.424;2024-03-23T01:38:56;11.30;99.90
39919;DHT22;25589;51.552;13.424;2024-03-23T01:41:24;12.10;99.90
39919;DHT22;25589;51.552;13.424;2024-03-23T01:43:50;12.10;99.90
39919;DHT22;25589;51.552;13.424;2024-03-23T01:48:43;12.30;99.90
39919;DHT22;25589;51.552;13.424;2024-03-23T01:51:09;11.80;99.90
39919;DHT22;25589;51.552;13.424;2024-03-23T01:58:28;12.30;99.90
39919;DHT22;25589;51.552;13.424;2024-03-23T02:00:54;12.70;99.90
39919;DHT22;25589;51.552;13.424;2024-03-23T02:03:26;12.50;99.90
39919;DHT22;25589;51.552;13.424;2024-03-23T02:05:54;12.40;99.90
39919;DHT22;25589;51.552;13.424;2024-03-23T02:13:14;12.40;99.90
39919;DHT22;25589;51.552;13.424;2024-03-23T02:15:39;11.90;99.90
39919;DHT22;25589;51.552;13.424;2024-03-23T02:18:06;12.40;99.90
39919;DHT22;25589;51.552;13.424;2024-03-23T02:20:32;12.20;99.90
39919;DHT22;25589;51.552;13.424;2024-03-23T02:22:58;12.40;99.90
39919;DHT22;25589;51.552;13.424;2024-03-23T02:25:23;12.50;99.90
39919;DHT22;25589;51.552;13.424;2024-03-23T02:27:49;12.50;99.90
39919;DHT22;25589;51.552;13.424;2024-03-23T02:30:15;12.50;99.90
39919;DHT22;25589;51.552;13.424;2024-03-23T02:32:40;13.10;99.90
39919;DHT22;25589;51.552;13.424;2024-03-23T02:35:06;11.90;99.90
39919;DHT22;25589;51.552;13.424;2024-03-23T02:37:32;12.40;99.90
39919;DHT22;25589;51.552;13.424;2024-03-23T02:39:58;12.40;99.90
39919;DHT22;25589;51.552;13.424;2024-03-23T02:42:24;12.50;99.90
39919;DHT22;25589;51.552;13.424;2024-03-23T02:44:49;12.50;99.90
39919;DHT22;25589;51.552;13.424;2024-03-23T02:47:15;12.40;99.90
39919;DHT22;25589;51.552;13.424;2024-03-23T02:49:40;12.40;99.90
39919;DHT22;25589;51.552;13.424;2024-03-23T02:52:06;12.10;99.90
39919;DHT22;25589;51.552;13.424;2024-03-23T02:54:31;11.80;99.90
39919;DHT22;25589;51.552;13.424;2024-03-23T02:56:57;11.40;99.90
39919;DHT22;25589;51.552;13.424;2024-03-23T02:59:23;11.40;99.90
39919;DHT22;25589;51.552;13.424;2024-03-23T03:01:48;11.50;99.90
39919;DHT22;25589;51.552;13.424;2024-03-23T03:09:06;11.30;99.90
39919;DHT22;25589;51.552;13.424;2024-03-23T03:11:32;11.00;99.90
39919;DHT22;25589;51.552;13.424;2024-03-23T03:13:57;11.20;99.90
39919;DHT22;25589;51.552;13.424;2024-03-23T03:16:25;11.30;99.90
39919;DHT22;25589;51.552;13.424;2024-03-23T03:18:51;11.30;99.90
39919;DHT22;25589;51.552;13.424;2024-03-23T03:23:44;11.80;99.90
39919;DHT22;25589;51.552;13.424;2024-03-23T03:26:10;11.20;99.90
39919;DHT22;25589;51.552;13.424;2024-03-23T03:28:35;11.60;99.90
39919;DHT22;25589;51.552;13.424;2024-03-23T03:31:01;11.60;99.90
39919;DHT22;25589;51.552;13.424;2024-03-23T03:35:54;11.60;99.90
39919;DHT22;25589;51.552;13.424;2024-03-23T03:38:20;11.60;99.90
39919;DHT22;25589;51.552;13.424;2024-03-23T03:40:45;11.70;99.90
39919;DHT22;25589;51.552;13.424;2024-03-23T03:43:11;11.00;99.90
39919;DHT22;25589;51.552;13.424;2024-03-23T03:45:37;11.20;99.90
39919;DHT22;25589;51.552;13.424;2024-03-23T03:50:28;11.50;99.90
39919;DHT22;25589;51.552;13.424;2024-03-23T03:52:54;11.70;99.90
39919;DHT22;25589;51.552;13.424;2024-03-23T03:55:19;11.60;99.90
39919;DHT22;25589;51.552;13.424;2024-03-23T03:57:45;11.40;99.90
39919;DHT22;25589;51.552;13.424;2024-03-23T04:00:11;11.40;99.90
39919;DHT22;25589;51.552;13.424;2024-03-23T04:02:40;11.20;99.90
39919;DHT22;25589;51.552;13.424;2024-03-23T04:07:32;11.40;99.90
39919;DHT22;25589;51.552;13.424;2024-03-23T04:09:57;11.40;99.90
39919;DHT22;25589;51.552;13.424;2024-03-23T04:12:23;12.40;99.90
39919;DHT22;25589;51.552;13.424;2024-03-23T04:14:49;11.40;99.90
39919;DHT22;25589;51.552;13.424;2024-03-23T04:17:15;11.70;99.90
39919;DHT22;25589;51.552;13.424;2024-03-23T04:19:40;11.30;99.90
39919;DHT22;25589;51.552;13.424;2024-03-23T04:22:06;11.30;99.90
39919;DHT22;25589;51.552;13.424;2024-03-23T04:24:32;11.30;99.90
39919;DHT22;25589;51.552;13.424;2024-03-23T04:26:57;11.10;99.90
39919;DHT22;25589;51.552;13.424;2024-03-23T04:31:49;11.10;99.90
39919;DHT22;25589;51.552;13.424;2024-03-23T04:34:15;11.30;99.90
39919;DHT22;25589;51.552;13.424;2024-03-23T04:36:40;11.50;99.90
39919;DHT22;25589;51.552;13.424;2024-03-23T04:39:06;11.20;99.90
39919;DHT22;25589;51.552;13.424;2024-03-23T04:41:34;11.30;99.90
39919;DHT22;25589;51.552;13.424;2024-03-23T04:44:00;11.20;99.90
39919;DHT22;25589;51.552;13.424;2024-03-23T04:46:26;12.00;99.90
39919;DHT22;25589;51.552;13.424;2024-03-23T04:48:51;11.80;99.90
39919;DHT22;25589;51.552;13.424;2024-03-23T04:51:23;11.20;99.90
39919;DHT22;25589;51.552;13.424;2024-03-23T04:53:49;11.30;99.90
39919;DHT22;25589;51.552;13.424;2024-03-23T04:56:16;11.20;99.90
39919;DHT22;25589;51.552;13.424;2024-03-23T04:58:42;11.10;99.90
39919;DHT22;25589;51.552;13.424;2024-03-23T05:03:36;11.20;99.90
39919;DHT22;25589;51.552;13.424;2024-03-23T05:06:02;10.70;99.90
39919;DHT22;25589;51.552;13.424;2024-03-23T05:08:28;11.20;99.90
39919;DHT22;25589;51.552;13.424;2024-03-23T05:10:54;11.20;99.90
39919;DHT22;25589;51.552;13.424;2024-03-23T05:13:19;10.80;99.90
39919;DHT22;25589;51.552;13.424;2024-03-23T05:18:17;11.10;99.90
39919;DHT22;25589;51.552;13.424;2024-03-23T05:20:43;11.10;99.90
39919;DHT22;25589;51.552;13.424;2024-03-23T05:23:09;11.10;99.90
39919;DHT22;25589;51.552;13.424;2024-03-23T05:25:35;11.00;99.90
39919;DHT22;25589;51.552;13.424;2024-03-23T05:28:01;11.00;99.90
39919;DHT22;25589;51.552;13.424;2024-03-23T05:30:26;11.00;99.90
39919;DHT22;25589;51.552;13.424;2024-03-23T05:32:52;11.40;99.90
39919;DHT22;25589;51.552;13.424;2024-03-23T05:35:17;11.00;99.90
39919;DHT22;25589;51.552;13.424;2024-03-23T05:37:43;10.90;99.90
39919;DHT22;25589;51.552;13.424;2024-03-23T05:40:10;11.10;99.90
39919;DHT22;25589;51.552;13.424;2024-03-23T05:42:38;11.00;99.90
39919;DHT22;25589;51.552;13.424;2024-03-23T05:45:04;11.10;99.90
39919;DHT22;25589;51.552;13.424;2024-03-23T05:47:32;11.00;99.90
39919;DHT22;25589;51.552;13.424;2024-03-23T05:49:57;11.00;99.90
39919;DHT22;25589;51.552;13.424;2024-03-23T05:52:23;11.00;99.90
39919;DHT22;25589;51.552;13.424;2024-03-23T05:54:51;10.90;99.90
39919;DHT22;25589;51.552;13.424;2024-03-23T05:57:17;11.40;99.90
39919;DHT22;25589;51.552;13.424;2024-03-23T05:59:44;10.50;99.90
39919;DHT22;25589;51.552;13.424;2024-03-23T06:02:10;10.70;99.90
39919;DHT22;25589;51.552;13.424;2024-03-23T06:04:36;10.80;99.90
39919;DHT22;25589;51.552;13.424;2024-03-23T06:07:01;10.60;99.90
39919;DHT22;25589;51.552;13.424;2024-03-23T06:09:27;11.20;99.90
39919;DHT22;25589;51.552;13.424;2024-03-23T06:11:53;10.80;99.90
39919;DHT22;25589;51.552;13.424;2024-03-23T06:14:18;10.80;99.90
39919;DHT22;25589;51.552;13.424;2024-03-23T06:19:10;10.80;99.90
39919;DHT22;25589;51.552;13.424;2024-03-23T06:21:35;10.80;99.90
39919;DHT22;25589;51.552;13.424;2024-03-23T06:24:01;11.10;99.90
39919;DHT22;25589;51.552;13.424;2024-03-23T06:26:27;10.80;99.90
39919;DHT22;25589;51.552;13.424;2024-03-23T06:28:53;10.70;99.90
39919;DHT22;25589;51.552;13.424;2024-03-23T06:31:19;10.30;99.90
39919;DHT22;25589;51.552;13.424;2024-03-23T06:33:45;11.00;99.90
39919;DHT22;25589;51.552;13.424;2024-03-23T06:36:11;10.80;99.90
39919;DHT22;25589;51.552;13.424;2024-03-23T06:38:37;10.70;99.90
39919;DHT22;25589;51.552;13.424;2024-03-23T06:41:04;11.60;99.90
39919;DHT22;25589;51.552;13.424;2024-03-23T06:43:30;10.80;99.90
39919;DHT22;25589;51.552;13.424;2024-03-23T06:45:56;10.10;99.90
39919;DHT22;25589;51.552;13.424;2024-03-23T06:48:21;10.50;99.90
39919;DHT22;25589;51.552;13.424;2024-03-23T06:50:47;10.80;99.90
39919;DHT22;25589;51.552;13.424;2024-03-23T06:53:16;10.90;99.90
39919;DHT22;25589;51.552;13.424;2024-03-23T06:55:41;10.80;99.90
39919;DHT22;25589;51.552;13.424;2024-03-23T06:58:08;10.30;99.90
39919;DHT22;25589;51.552;13.424;2024-03-23T07:00:34;10.90;99.90
39919;DHT22;25589;51.552;13.424;2024-03-23T07:03:00;10.90;99.90
39919;DHT22;25589;51.552;13.424;2024-03-23T07:05:25;11.10;99.90
39919;DHT22;25589;51.552;13.424;2024-03-23T07:07:51;10.80;99.90
39919;DHT22;25589;51.552;13.424;2024-03-23T07:10:17;10.70;99.90
39919;DHT22;25589;51.552;13.424;2024-03-23T07:12:43;10.10;99.90
39919;DHT22;25589;51.552;13.424;2024-03-23T07:15:09;10.90;99.90
39919;DHT22;25589;51.552;13.424;2024-03-23T07:17:35;11.40;99.90
39919;DHT22;25589;51.552;13.424;2024-03-23T07:20:02;10.70;99.90
39919;DHT22;25589;51.552;13.424;2024-03-23T07:22:32;10.80;99.90
39919;DHT22;25589;51.552;13.424;2024-03-23T07:25:00;10.50;99.90
39919;DHT22;25589;51.552;13.424;2024-03-23T07:27:26;11.20;99.90
39919;DHT22;25589;51.552;13.424;2024-03-23T07:29:52;10.50;99.90
39919;DHT22;25589;51.552;13.424;2024-03-23T07:32:17;10.60;99.90
39919;DHT22;25589;51.552;13.424;2024-03-23T07:34:43;10.10;99.90
39919;DHT22;25589;51.552;13.424;2024-03-23T07:37:10;10.60;99.90
39919;DHT22;25589;51.552;13.424;2024-03-23T07:39:36;10.90;99.90
39919;DHT22;25589;51.552;13.424;2024-03-23T07:42:02;10.70;99.90
39919;DHT22;25589;51.552;13.424;2024-03-23T07:44:27;10.70;99.90
39919;DHT22;25589;51.552;13.424;2024-03-23T07:46:53;11.70;99.90
39919;DHT22;25589;51.552;13.424;2024-03-23T07:49:19;10.70;99.90
39919;DHT22;25589;51.552;13.424;2024-03-23T07:54:10;11.00;99.90
39919;DHT22;25589;51.552;13.424;2024-03-23T07:56:37;10.60;99.90
39919;DHT22;25589;51.552;13.424;2024-03-23T07:59:03;11.00;99.90
39919;DHT22;25589;51.552;13.424;2024-03-23T08:01:29;10.80;99.90
39919;DHT22;25589;51.552;13.424;2024-03-23T08:03:55;11.50;99.90
39919;DHT22;25589;51.552;13.424;2024-03-23T08:06:21;10.80;99.90
39919;DHT22;25589;51.552;13.424;2024-03-23T08:08:52;10.90;99.90
39919;DHT22;25589;51.552;13.424;2024-03-23T08:11:28;10.90;99.90
39919;DHT22;25589;51.552;13.424;2024-03-23T08:13:54;10.90;99.90
39919;DHT22;25589;51.552;13.424;2024-03-23T08:16:20;10.20;99.90
39919;DHT22;25589;51.552;13.424;2024-03-23T08:18:46;10.80;99.90
39919;DHT22;25589;51.552;13.424;2024-03-23T08:21:14;10.70;99.90
39919;DHT22;25589;51.552;13.424;2024-03-23T08:23:40;10.80;99.90
39919;DHT22;25589;51.552;13.424;2024-03-23T08:26:07;11.30;99.90
39919;DHT22;25589;51.552;13.424;2024-03-23T08:28:34;10.70;99.90
39919;DHT22;25589;51.552;13.424;2024-03-23T08:33:28;10.30;99.90
39919;DHT22;25589;51.552;13.424;2024-03-23T08:36:02;10.70;99.90
39919;DHT22;25589;51.552;13.424;2024-03-23T08:38:28;10.30;99.90
39919;DHT22;25589;51.552;13.424;2024-03-23T08:41:07;10.20;99.90
39919;DHT22;25589;51.552;13.424;2024-03-23T08:43:36;10.10;99.90
39919;DHT22;25589;51.552;13.424;2024-03-23T08:46:09;9.80;99.90
39919;DHT22;25589;51.552;13.424;2024-03-23T08:48:36;9.80;99.90
39919;DHT22;25589;51.552;13.424;2024-03-23T08:53:32;10.00;99.90
39919;DHT22;25589;51.552;13.424;2024-03-23T08:55:58;9.60;99.90
39919;DHT22;25589;51.552;13.424;2024-03-23T08:58:26;8.70;99.90
39919;DHT22;25589;51.552;13.424;2024-03-23T09:00:52;8.30;99.90
39919;DHT22;25589;51.552;13.424;2024-03-23T09:03:18;8.50;99.90
39919;DHT22;25589;51.552;13.424;2024-03-23T09:05:44;9.20;99.90
39919;DHT22;25589;51.552;13.424;2024-03-23T09:08:09;8.70;99.90
39919;DHT22;25589;51.552;13.424;2024-03-23T09:10:39;8.60;99.90
39919;DHT22;25589;51.552;13.424;2024-03-23T09:13:05;9.30;99.90
39919;DHT22;25589;51.552;13.424;2024-03-23T09:15:33;8.00;99.90
39919;DHT22;25589;51.552;13.424;2024-03-23T09:17:59;8.00;99.90
39919;DHT22;25589;51.552;13.424;2024-03-23T09:20:25;7.80;99.90
39919;DHT22;25589;51.552;13.424;2024-03-23T09:22:51;8.20;99.90
39919;DHT22;25589;51.552;13.424;2024-03-23T09:25:17;7.10;99.90
39919;DHT22;25589;51.552;13.424;2024-03-23T09:27:42;7.00;99.90
39919;DHT22;25589;51.552;13.424;2024-03-23T09:32:35;6.80;99.90
39919;DHT22;25589;51.552;13.424;2024-03-23T09:35:01;6.70;99.90
39919;DHT22;25589;51.552;13.424;2024-03-23T09:37:26;6.00;99.90
39919;DHT22;25589;51.552;13.424;2024-03-23T09:39:52;6.80;99.90
39919;DHT22;25589;51.552;13.424;2024-03-23T09:42:18;6.80;99.90
39919;DHT22;25589;51.552;13.424;2024-03-23T09:44:44;7.70;99.90
39919;DHT22;25589;51.552;13.424;2024-03-23T09:47:10;6.40;99.90
39919;DHT22;25589;51.552;13.424;2024-03-23T09:49:35;7.30;99.90
39919;DHT22;25589;51.552;13.424;2024-03-23T09:52:02;7.50;99.90
39919;DHT22;25589;51.552;13.424;2024-03-23T09:56:54;6.50;99.90
39919;DHT22;25589;51.552;13.424;2024-03-23T09:59:20;6.30;99.90
39919;DHT22;25589;51.552;13.424;2024-03-23T10:01:45;6.90;99.90
39919;DHT22;25589;51.552;13.424;2024-03-23T10:04:12;5.40;99.90
39919;DHT22;25589;51.552;13.424;2024-03-23T10:07:11;6.10;99.90
39919;DHT22;25589;51.552;13.424;2024-03-23T10:09:36;6.00;99.90
39919;DHT22;25589;51.552;13.424;2024-03-23T10:12:15;6.20;99.90
39919;DHT22;25589;51.552;13.424;2024-03-23T10:14:42;5.30;99.90
39919;DHT22;25589;51.552;13.424;2024-03-23T10:17:21;5.80;99.90
39919;DHT22;25589;51.552;13.424;2024-03-23T10:22:19;6.00;99.90
39919;DHT22;25589;51.552;13.424;2024-03-23T10:24:45;6.50;99.90
39919;DHT22;25589;51.552;13.424;2024-03-23T10:27:18;6.00;99.90
39919;DHT22;25589;51.552;13.424;2024-03-23T10:29:48;5.70;99.90
39919;DHT22;25589;51.552;13.424;2024-03-23T10:32:15;6.10;99.90
39919;DHT22;25589;51.552;13.424;2024-03-23T10:34:41;5.70;99.90
39919;DHT22;25589;51.552;13.424;2024-03-23T10:37:07;5.90;99.90
39919;DHT22;25589;51.552;13.424;2024-03-23T10:39:35;6.60;99.90
39919;DHT22;25589;51.552;13.424;2024-03-23T10:42:02;5.90;99.90
39919;DHT22;25589;51.552;13.424;2024-03-23T10:44:30;5.00;99.90
39919;DHT22;25589;51.552;13.424;2024-03-23T10:46:57;5.90;99.90
39919;DHT22;25589;51.552;13.424;2024-03-23T10:51:59;5.90;99.90
39919;DHT22;25589;51.552;13.424;2024-03-23T10:54:26;6.20;99.90
39919;DHT22;25589;51.552;13.424;2024-03-23T10:57:08;5.70;99.90
39919;DHT22;25589;51.552;13.424;2024-03-23T10:59:37;5.10;99.90
39919;DHT22;25589;51.552;13.424;2024-03-23T11:02:03;6.10;99.90
39919;DHT22;25589;51.552;13.424;2024-03-23T11:04:38;6.30;99.90
39919;DHT22;25589;51.552;13.424;2024-03-23T11:09:50;6.10;99.90
39919;DHT22;25589;51.552;13.424;2024-03-23T11:12:28;7.10;99.90
39919;DHT22;25589;51.552;13.424;2024-03-23T11:17:38;5.90;99.90
39919;DHT22;25589;51.552;13.424;2024-03-23T11:20:05;5.90;99.90
39919;DHT22;25589;51.552;13.424;2024-03-23T11:25:16;6.20;99.90
39919;DHT22;25589;51.552;13.424;2024-03-23T11:27:46;4.90;99.90
39919;DHT22;25589;51.552;13.424;2024-03-23T11:30:16;6.00;99.90
39919;DHT22;25589;51.552;13.424;2024-03-23T11:32:46;4.80;99.90
39919;DHT22;25589;51.552;13.424;2024-03-23T11:35:35;6.10;99.90
39919;DHT22;25589;51.552;13.424;2024-03-23T11:38:14;5.40;99.90
39919;DHT22;25589;51.552;13.424;2024-03-23T11:40:44;6.00;99.90
39919;DHT22;25589;51.552;13.424;2024-03-23T11:43:18;5.70;99.90
39919;DHT22;25589;51.552;13.424;2024-03-23T11:45:52;5.90;99.90
39919;DHT22;25589;51.552;13.424;2024-03-23T11:48:23;5.70;99.90
39919;DHT22;25589;51.552;13.424;2024-03-23T11:53:17;7.10;99.90
39919;DHT22;25589;51.552;13.424;2024-03-23T11:55:51;6.10;99.90
39919;DHT22;25589;51.552;13.424;2024-03-23T11:58:17;6.20;99.90
39919;DHT22;25589;51.552;13.424;2024-03-23T12:00:50;6.00;99.90
39919;DHT22;25589;51.552;13.424;2024-03-23T12:03:17;7.50;99.90
39919;DHT22;25589;51.552;13.424;2024-03-23T12:05:48;6.10;99.90
39919;DHT22;25589;51.552;13.424;2024-03-23T12:10:44;7.10;99.90
39919;DHT22;25589;51.552;13.424;2024-03-23T12:13:11;6.10;99.90
39919;DHT22;25589;51.552;13.424;2024-03-23T12:15:37;6.20;99.90
39919;DHT22;25589;51.552;13.424;2024-03-23T12:20:35;6.40;99.90
39919;DHT22;25589;51.552;13.424;2024-03-23T12:23:05;5.20;99.90
39919;DHT22;25589;51.552;13.424;2024-03-23T12:25:31;6.30;99.90
39919;DHT22;25589;51.552;13.424;2024-03-23T12:30:25;6.70;99.90
39919;DHT22;25589;51.552;13.424;2024-03-23T12:32:50;8.10;99.90
39919;DHT22;25589;51.552;13.424;2024-03-23T12:35:16;6.80;99.90
39919;DHT22;25589;51.552;13.424;2024-03-23T12:37:41;6.80;99.90
39919;DHT22;25589;51.552;13.424;2024-03-23T12:40:07;8.00;99.90
39919;DHT22;25589;51.552;13.424;2024-03-23T12:42:33;7.40;99.90
39919;DHT22;25589;51.552;13.424;2024-03-23T12:44:59;6.70;99.90
39919;DHT22;25589;51.552;13.424;2024-03-23T12:47:24;7.70;99.90
39919;DHT22;25589;51.552;13.424;2024-03-23T12:49:51;7.90;99.90
39919;DHT22;25589;51.552;13.424;2024-03-23T12:52:17;7.60;99.90
39919;DHT22;25589;51.552;13.424;2024-03-23T12:54:43;8.90;99.90
39919;DHT22;25589;51.552;13.424;2024-03-23T12:57:08;8.40;99.90
39919;DHT22;25589;51.552;13.424;2024-03-23T12:59:34;8.50;99.90
39919;DHT22;25589;51.552;13.424;2024-03-23T13:02:01;9.10;99.90
39919;DHT22;25589;51.552;13.424;2024-03-23T13:04:26;9.00;99.90
39919;DHT22;25589;51.552;13.424;2024-03-23T13:06:52;8.70;99.90
39919;DHT22;25589;51.552;13.424;2024-03-23T13:09:18;9.30;99.90
39919;DHT22;25589;51.552;13.424;2024-03-23T13:11:43;8.80;99.90
39919;DHT22;25589;51.552;13.424;2024-03-23T13:14:09;8.70;99.90
39919;DHT22;25589;51.552;13.424;2024-03-23T13:16:35;7.50;99.90
39919;DHT22;25589;51.552;13.424;2024-03-23T13:19:01;8.40;99.90
39919;DHT22;25589;51.552;13.424;2024-03-23T13:21:28;8.30;99.90
39919;DHT22;25589;51.552;13.424;2024-03-23T13:23:53;8.30;99.90
39919;DHT22;25589;51.552;13.424;2024-03-23T13:26:19;8.40;99.90
39919;DHT22;25589;51.552;13.424;2024-03-23T13:28:44;9.40;99.90
39919;DHT22;25589;51.552;13.424;2024-03-23T13:31:10;8.60;99.90
39919;DHT22;25589;51.552;13.424;2024-03-23T13:33:38;8.60;99.90
39919;DHT22;25589;51.552;13.424;2024-03-23T13:36:05;8.80;99.90
39919;DHT22;25589;51.552;13.424;2024-03-23T13:38:31;8.10;99.90
39919;DHT22;25589;51.552;13.424;2024-03-23T13:40:58;9.90;99.90
39919;DHT22;25589;51.552;13.424;2024-03-23T13:43:25;8.70;99.90
39919;DHT22;25589;51.552;13.424;2024-03-23T13:45:58;9.60;99.90
39919;DHT22;25589;51.552;13.424;2024-03-23T13:48:27;9.20;99.90
39919;DHT22;25589;51.552;13.424;2024-03-23T13:51:02;9.40;99.90
39919;DHT22;25589;51.552;13.424;2024-03-23T13:53:28;9.60;99.90
39919;DHT22;25589;51.552;13.424;2024-03-23T13:55:54;10.30;99.90
39919;DHT22;25589;51.552;13.424;2024-03-23T13:58:20;9.70;99.90
39919;DHT22;25589;51.552;13.424;2024-03-23T14:00:46;10.10;99.90
39919;DHT22;25589;51.552;13.424;2024-03-23T14:03:13;10.30;99.90
39919;DHT22;25589;51.552;13.424;2024-03-23T14:05:39;10.60;99.90
39919;DHT22;25589;51.552;13.424;2024-03-23T14:08:09;11.40;99.90
39919;DHT22;25589;51.552;13.424;2024-03-23T14:10:35;11.00;99.90
39919;DHT22;25589;51.552;13.424;2024-03-23T14:13:03;11.70;99.90
39919;DHT22;25589;51.552;13.424;2024-03-23T14:15:29;10.60;99.90
39919;DHT22;25589;51.552;13.424;2024-03-23T14:17:58;10.80;99.90
39919;DHT22;25589;51.552;13.424;2024-03-23T14:20:24;10.80;99.90
39919;DHT22;25589;51.552;13.424;2024-03-23T14:22:49;11.10;99.90
39919;DHT22;25589;51.552;13.424;2024-03-23T14:25:15;11.80;99.90
39919;DHT22;25589;51.552;13.424;2024-03-23T14:27:43;11.40;99.90
39919;DHT22;25589;51.552;13.424;2024-03-23T14:30:09;11.80;99.90
39919;DHT22;25589;51.552;13.424;2024-03-23T14:32:35;11.00;99.90
39919;DHT22;25589;51.552;13.424;2024-03-23T14:35:01;11.50;99.90
39919;DHT22;25589;51.552;13.424;2024-03-23T14:37:27;11.60;99.90
39919;DHT22;25589;51.552;13.424;2024-03-23T14:39:52;11.60;99.90
39919;DHT22;25589;51.552;13.424;2024-03-23T14:42:18;11.70;99.90
39919;DHT22;25589;51.552;13.424;2024-03-23T14:44:44;11.90;99.90
39919;DHT22;25589;51.552;13.424;2024-03-23T14:47:09;12.00;99.90
39919;DHT22;25589;51.552;13.424;2024-03-23T14:49:36;12.00;99.90
39919;DHT22;25589;51.552;13.424;2024-03-23T14:52:01;11.30;99.90
39919;DHT22;25589;51.552;13.424;2024-03-23T14:54:27;11.40;99.90
39919;DHT22;25589;51.552;13.424;2024-03-23T14:56:53;11.00;99.90
39919;DHT22;25589;51.552;13.424;2024-03-23T14:59:18;10.80;99.90
39919;DHT22;25589;51.552;13.424;2024-03-23T15:01:45;10.50;99.90
39919;DHT22;25589;51.552;13.424;2024-03-23T15:04:10;9.70;99.90
39919;DHT22;25589;51.552;13.424;2024-03-23T15:06:36;8.50;99.90
39919;DHT22;25589;51.552;13.424;2024-03-23T15:09:02;8.50;99.90
39919;DHT22;25589;51.552;13.424;2024-03-23T15:11:32;8.20;99.90
39919;DHT22;25589;51.552;13.424;2024-03-23T15:13:58;7.60;99.90
39919;DHT22;25589;51.552;13.424;2024-03-23T15:16:24;7.50;99.90
39919;DHT22;25589;51.552;13.424;2024-03-23T15:21:15;7.90;99.90
39919;DHT22;25589;51.552;13.424;2024-03-23T15:23:45;9.30;99.90
39919;DHT22;25589;51.552;13.424;2024-03-23T15:26:11;10.40;99.90
39919;DHT22;25589;51.552;13.424;2024-03-23T15:28:36;10.00;99.90
39919;DHT22;25589;51.552;13.424;2024-03-23T15:31:21;11.70;99.90
39919;DHT22;25589;51.552;13.424;2024-03-23T15:33:46;11.90;99.90
39919;DHT22;25589;51.552;13.424;2024-03-23T15:38:38;12.80;99.90
39919;DHT22;25589;51.552;13.424;2024-03-23T15:41:04;12.60;99.90
39919;DHT22;25589;51.552;13.424;2024-03-23T15:43:30;12.90;99.90
39919;DHT22;25589;51.552;13.424;2024-03-23T15:48:28;12.00;99.90
39919;DHT22;25589;51.552;13.424;2024-03-23T15:50:58;11.70;99.90
39919;DHT22;25589;51.552;13.424;2024-03-23T15:53:25;11.40;99.90
39919;DHT22;25589;51.552;13.424;2024-03-23T15:58:24;11.30;99.90
39919;DHT22;25589;51.552;13.424;2024-03-23T16:00:55;11.30;99.90
39919;DHT22;25589;51.552;13.424;2024-03-23T16:03:21;12.00;99.90
39919;DHT22;25589;51.552;13.424;2024-03-23T16:05:55;12.20;99.90
39919;DHT22;25589;51.552;13.424;2024-03-23T16:08:21;13.40;99.90
39919;DHT22;25589;51.552;13.424;2024-03-23T16:10:47;12.10;99.90
39919;DHT22;25589;51.552;13.424;2024-03-23T16:13:13;12.20;99.90
39919;DHT22;25589;51.552;13.424;2024-03-23T16:15:39;12.50;99.90
39919;DHT22;25589;51.552;13.424;2024-03-23T16:18:04;12.90;99.90
39919;DHT22;25589;51.552;13.424;2024-03-23T16:20:30;13.00;99.90
39919;DHT22;25589;51.552;13.424;2024-03-23T16:22:58;13.30;99.90
39919;DHT22;25589;51.552;13.424;2024-03-23T16:25:24;13.20;99.90
39919;DHT22;25589;51.552;13.424;2024-03-23T16:27:50;13.20;99.90
39919;DHT22;25589;51.552;13.424;2024-03-23T16:30:16;12.90;99.90
39919;DHT22;25589;51.552;13.424;2024-03-23T16:32:41;12.40;99.90
39919;DHT22;25589;51.552;13.424;2024-03-23T16:35:07;11.80;99.90
39919;DHT22;25589;51.552;13.424;2024-03-23T16:40:02;9.80;99.90
39919;DHT22;25589;51.552;13.424;2024-03-23T16:42:29;9.50;99.90
39919;DHT22;25589;51.552;13.424;2024-03-23T16:44:55;11.50;99.90
39919;DHT22;25589;51.552;13.424;2024-03-23T16:47:21;10.80;99.90
39919;DHT22;25589;51.552;13.424;2024-03-23T16:49:46;11.10;99.90
39919;DHT22;25589;51.552;13.424;2024-03-23T16:52:12;9.70;99.90
39919;DHT22;25589;51.552;13.424;2024-03-23T16:54:37;11.30;99.90
39919;DHT22;25589;51.552;13.424;2024-03-23T16:57:03;11.40;99.90
39919;DHT22;25589;51.552;13.424;2024-03-23T16:59:29;11.00;99.90
39919;DHT22;25589;51.552;13.424;2024-03-23T17:01:54;10.90;99.90
39919;DHT22;25589;51.552;13.424;2024-03-23T17:04:23;10.60;99.90
39919;DHT22;25589;51.552;13.424;2024-03-23T17:06:49;9.80;99.90
39919;DHT22;25589;51.552;13.424;2024-03-23T17:09:15;9.80;99.90
39919;DHT22;25589;51.552;13.424;2024-03-23T17:11:42;9.60;99.90
39919;DHT22;25589;51.552;13.424;2024-03-23T17:14:09;9.40;99.90
39919;DHT22;25589;51.552;13.424;2024-03-23T17:16:35;9.50;99.90
39919;DHT22;25589;51.552;13.424;2024-03-23T17:19:01;9.40;99.90
39919;DHT22;25589;51.552;13.424;2024-03-23T17:21:27;9.40;99.90
39919;DHT22;25589;51.552;13.424;2024-03-23T17:23:53;9.30;99.90
39919;DHT22;25589;51.552;13.424;2024-03-23T17:26:23;9.30;99.90
39919;DHT22;25589;51.552;13.424;2024-03-23T17:28:49;10.10;99.90
39919;DHT22;25589;51.552;13.424;2024-03-23T17:31:19;9.20;99.90
39919;DHT22;25589;51.552;13.424;2024-03-23T17:33:45;9.10;99.90
39919;DHT22;25589;51.552;13.424;2024-03-23T17:36:11;9.00;99.90
39919;DHT22;25589;51.552;13.424;2024-03-23T17:38:36;8.90;99.90
39919;DHT22;25589;51.552;13.424;2024-03-23T17:41:05;8.80;99.90